Altona, Illinois
Current Conditions -  °F | °C
As of 11:35 AM on Friday 24 Oct 2014 (Local Time) from KGBG Reporting Station
Haze Haze  
Wind Chill: 54°   Ceiling: 300
Heat Index: 54°   Visibility: 0.75mi
Dew Point: 54°   Wind: 7mph
Humidity: 99%   Direction: 190°S
Pressure: 30.09"   Gusts: NA
Location:  41.11°N, 90.16°W
Report Text: KGBG 241635Z AUTO 19006KT 3/4SM BR OVC003 12/12 A3009 RMK AO2 T01220121
Loading
Personal Weather Stations






























Interactive Weather Map
Tropical Storm Tracking
New forecast layout! Learn more

10-Day Weather Forecast

Advertisements
Track Severe Weather on mobile